Terminal Aerodrome Forecast
Issued by NWS

Home | Current Version | Previous Version | Text Only | Print | Product List | Glossary On
Versions: 1 2 3 4 5 6 7 8 9 10 11 12 13 14 15
000
FTUS46 KMTR 281400 AAA
TAFSNS
TAF AMD
KSNS 281429Z 2814/2912 VRB04KT P6SM SCT002
      TEMPO 2814/2818 1/4SM FG VV002
     FM281800 26009KT P6SM SCT200
     FM290300 VRB03KT P6SM BKN012=

USA.gov is the U.S. government's official web portal to all federal, state and local government web resources and services.